THY3MD LTFM-LTAN
Flight info
| Callsign | THY3MD |
|---|---|
| Flight time | 0h 51m |
| Altitude | 31000 |
| Route | RATVU1E/36 RATVU UT35 DOKUB UT76 KFK UB545 HISAR |
| Aircraft | A321/M-SDE3FGHIRWY/LB1 |
Departure
| Time | 2026-04-11 10:32 |
|---|---|
| Airport | İstanbul Airport (LTFM) |
Arrival
| Time | 2026-04-11 11:23 |
|---|---|
| Airport | Konya Airport (LTAN) |
| Time | Latitude | Longitude | Altitude | Speed | Heading |
|---|---|---|---|---|---|
| 2026-04-11 10:06 | 41.25917 | 28.74988 | 334 ft | 0 kts | 251° |
| 2026-04-11 10:19 | 41.25922 | 28.75008 | 329 ft | 4 kts | 251° |
| 2026-04-11 10:19 | 41.25931 | 28.75041 | 330 ft | 4 kts | 251° |
| 2026-04-11 10:20 | 41.25936 | 28.75075 | 330 ft | 4 kts | 277° |
| 2026-04-11 10:20 | 41.25928 | 28.75105 | 331 ft | 4 kts | 316° |
| 2026-04-11 10:20 | 41.25908 | 28.75122 | 331 ft | 1 kts | 341° |
| 2026-04-11 10:20 | 41.25888 | 28.75131 | 331 ft | 1 kts | 341° |
| 2026-04-11 10:21 | 41.25887 | 28.75132 | 331 ft | 2 kts | 341° |
| 2026-04-11 10:24 | 41.25889 | 28.75131 | 334 ft | 1 kts | 341° |
| 2026-04-11 10:25 | 41.25911 | 28.75121 | 331 ft | 6 kts | 341° |
| 2026-04-11 10:25 | 41.25964 | 28.75097 | 332 ft | 10 kts | 341° |
| 2026-04-11 10:25 | 41.26033 | 28.75065 | 334 ft | 11 kts | 341° |
| 2026-04-11 10:25 | 41.26108 | 28.75031 | 331 ft | 12 kts | 341° |
| 2026-04-11 10:26 | 41.26191 | 28.74996 | 330 ft | 13 kts | 352° |
| 2026-04-11 10:26 | 41.26243 | 28.75075 | 332 ft | 13 kts | 90° |
| 2026-04-11 10:26 | 41.26245 | 28.75171 | 334 ft | 1 kts | 89° |
| 2026-04-11 10:26 | 41.26245 | 28.75177 | 334 ft | 2 kts | 89° |
| 2026-04-11 10:27 | 41.26245 | 28.75208 | 334 ft | 5 kts | 89° |
| 2026-04-11 10:27 | 41.26258 | 28.75261 | 330 ft | 7 kts | 47° |
| 2026-04-11 10:27 | 41.26315 | 28.75276 | 333 ft | 10 kts | 359° |
| 2026-04-11 10:27 | 41.26392 | 28.75276 | 333 ft | 11 kts | 6° |
| 2026-04-11 10:28 | 41.26423 | 28.75363 | 332 ft | 12 kts | 89° |
| 2026-04-11 10:28 | 41.26424 | 28.75480 | 331 ft | 11 kts | 89° |
| 2026-04-11 10:28 | 41.26424 | 28.75500 | 332 ft | 0 kts | 89° |
| 2026-04-11 10:29 | 41.26424 | 28.75520 | 331 ft | 4 kts | 89° |
| 2026-04-11 10:29 | 41.26425 | 28.75572 | 333 ft | 7 kts | 89° |
| 2026-04-11 10:30 | 41.26427 | 28.75643 | 332 ft | 8 kts | 78° |
| 2026-04-11 10:30 | 41.26475 | 28.75665 | 331 ft | 8 kts | 0° |
| 2026-04-11 10:30 | 41.26489 | 28.75664 | 333 ft | 0 kts | 359° |
| 2026-04-11 10:31 | 41.26490 | 28.75664 | 333 ft | 2 kts | 359° |
| 2026-04-11 10:31 | 41.26647 | 28.75662 | 331 ft | 58 kts | 0° |
| 2026-04-11 10:31 | 41.27312 | 28.75649 | 332 ft | 129 kts | 359° |
| 2026-04-11 10:32 | 41.28367 | 28.75636 | 604 ft | 159 kts | 2° |
| 2026-04-11 10:32 | 41.29471 | 28.75633 | 1495 ft | 160 kts | 4° |
| 2026-04-11 10:32 | 41.30518 | 28.76242 | 2056 ft | 179 kts | 40° |
| 2026-04-11 10:32 | 41.31508 | 28.77412 | 2376 ft | 202 kts | 41° |
| 2026-04-11 10:33 | 41.32711 | 28.78587 | 2649 ft | 227 kts | 31° |
| 2026-04-11 10:33 | 41.34164 | 28.79684 | 3115 ft | 249 kts | 27° |
| 2026-04-11 10:33 | 41.35713 | 28.80775 | 3984 ft | 255 kts | 27° |
| 2026-04-11 10:33 | 41.37252 | 28.81976 | 4879 ft | 260 kts | 39° |
| 2026-04-11 10:34 | 41.38260 | 28.83974 | 5714 ft | 268 kts | 73° |
| 2026-04-11 10:34 | 41.38447 | 28.86464 | 6594 ft | 273 kts | 88° |
| 2026-04-11 10:34 | 41.38471 | 28.89012 | 7452 ft | 277 kts | 90° |
| 2026-04-11 10:34 | 41.38053 | 28.91524 | 8278 ft | 283 kts | 117° |
| 2026-04-11 10:35 | 41.36831 | 28.93532 | 9098 ft | 287 kts | 144° |
| 2026-04-11 10:35 | 41.35028 | 28.94637 | 9938 ft | 288 kts | 171° |
| 2026-04-11 10:35 | 41.32987 | 28.94806 | 10417 ft | 305 kts | 180° |
| 2026-04-11 10:35 | 41.30787 | 28.94842 | 10674 ft | 328 kts | 181° |
| 2026-04-11 10:36 | 41.28448 | 28.94859 | 11147 ft | 341 kts | 181° |
| 2026-04-11 10:36 | 41.26055 | 28.94878 | 11868 ft | 346 kts | 181° |
| 2026-04-11 10:36 | 41.23640 | 28.94831 | 12648 ft | 349 kts | 184° |
| 2026-04-11 10:36 | 41.21200 | 28.94651 | 13420 ft | 353 kts | 186° |
| 2026-04-11 10:37 | 41.18738 | 28.94396 | 14174 ft | 357 kts | 187° |
| 2026-04-11 10:37 | 41.16250 | 28.94114 | 14867 ft | 361 kts | 187° |
| 2026-04-11 10:37 | 41.13738 | 28.93833 | 15567 ft | 364 kts | 187° |
| 2026-04-11 10:37 | 41.11197 | 28.93566 | 16274 ft | 368 kts | 187° |
| 2026-04-11 10:38 | 41.08623 | 28.93311 | 16969 ft | 373 kts | 187° |
| 2026-04-11 10:38 | 41.06021 | 28.93066 | 17663 ft | 377 kts | 187° |
| 2026-04-11 10:38 | 41.00714 | 28.92569 | 18933 ft | 387 kts | 188° |
| 2026-04-11 10:39 | 40.98017 | 28.92258 | 19482 ft | 392 kts | 189° |
| 2026-04-11 10:39 | 40.95286 | 28.91911 | 20026 ft | 398 kts | 190° |
| 2026-04-11 10:39 | 40.92548 | 28.91551 | 20552 ft | 403 kts | 191° |
| 2026-04-11 10:39 | 40.89738 | 28.91179 | 21083 ft | 409 kts | 191° |
| 2026-04-11 10:40 | 40.86869 | 28.90941 | 21616 ft | 419 kts | 185° |
| 2026-04-11 10:40 | 40.83922 | 28.91147 | 22131 ft | 427 kts | 182° |
| 2026-04-11 10:40 | 40.80944 | 28.91390 | 22629 ft | 432 kts | 182° |
| 2026-04-11 10:40 | 40.77923 | 28.91637 | 23112 ft | 438 kts | 183° |
| 2026-04-11 10:41 | 40.74860 | 28.91887 | 23598 ft | 443 kts | 183° |
| 2026-04-11 10:41 | 40.71770 | 28.92140 | 24001 ft | 448 kts | 183° |
| 2026-04-11 10:41 | 40.68640 | 28.92393 | 24412 ft | 452 kts | 184° |
| 2026-04-11 10:41 | 40.65493 | 28.92646 | 24838 ft | 455 kts | 184° |
| 2026-04-11 10:42 | 40.62314 | 28.92901 | 25255 ft | 459 kts | 184° |
| 2026-04-11 10:42 | 40.59111 | 28.93237 | 25656 ft | 467 kts | 179° |
| 2026-04-11 10:42 | 40.55899 | 28.94159 | 26067 ft | 479 kts | 169° |
| 2026-04-11 10:42 | 40.52756 | 28.95779 | 26447 ft | 490 kts | 158° |
| 2026-04-11 10:43 | 40.46912 | 29.00536 | 27177 ft | 503 kts | 150° |
| 2026-04-11 10:43 | 40.43971 | 29.03049 | 27555 ft | 506 kts | 150° |
| 2026-04-11 10:43 | 40.41004 | 29.05577 | 27919 ft | 510 kts | 151° |
| 2026-04-11 10:44 | 40.38017 | 29.08120 | 28296 ft | 514 kts | 151° |
| 2026-04-11 10:44 | 40.35012 | 29.10676 | 28657 ft | 517 kts | 151° |
| 2026-04-11 10:44 | 40.31979 | 29.13248 | 29008 ft | 521 kts | 151° |
| 2026-04-11 10:44 | 40.28926 | 29.15830 | 29364 ft | 524 kts | 151° |
| 2026-04-11 10:45 | 40.25846 | 29.18434 | 29669 ft | 529 kts | 151° |
| 2026-04-11 10:45 | 40.22747 | 29.21052 | 30030 ft | 532 kts | 151° |
| 2026-04-11 10:45 | 40.19593 | 29.23604 | 30360 ft | 532 kts | 156° |
| 2026-04-11 10:45 | 40.16266 | 29.25662 | 30697 ft | 527 kts | 165° |
| 2026-04-11 10:46 | 40.12836 | 29.27303 | 31047 ft | 524 kts | 166° |
| 2026-04-11 10:46 | 40.06066 | 29.30529 | 31145 ft | 508 kts | 166° |
| 2026-04-11 10:47 | 39.99462 | 29.33684 | 31145 ft | 504 kts | 166° |
| 2026-04-11 10:47 | 39.92878 | 29.36809 | 31131 ft | 503 kts | 167° |
| 2026-04-11 10:48 | 39.86362 | 29.40015 | 31131 ft | 505 kts | 164° |
| 2026-04-11 10:48 | 39.79891 | 29.43602 | 31117 ft | 506 kts | 162° |
| 2026-04-11 10:49 | 39.73443 | 29.47290 | 31109 ft | 506 kts | 162° |
| 2026-04-11 10:49 | 39.66982 | 29.50892 | 31101 ft | 505 kts | 163° |
| 2026-04-11 10:50 | 39.60483 | 29.54362 | 31101 ft | 504 kts | 165° |
| 2026-04-11 10:50 | 39.53950 | 29.57589 | 31096 ft | 502 kts | 166° |
| 2026-04-11 10:51 | 39.47413 | 29.60763 | 31106 ft | 502 kts | 166° |
| 2026-04-11 10:51 | 39.40934 | 29.63970 | 31106 ft | 502 kts | 166° |
| 2026-04-11 10:52 | 39.34431 | 29.67213 | 31104 ft | 501 kts | 166° |
| 2026-04-11 10:52 | 39.27935 | 29.70435 | 31096 ft | 500 kts | 166° |
| 2026-04-11 10:53 | 39.21446 | 29.73652 | 31095 ft | 499 kts | 166° |
| 2026-04-11 10:53 | 39.14975 | 29.76849 | 31093 ft | 498 kts | 166° |
| 2026-04-11 10:54 | 39.08519 | 29.80033 | 31092 ft | 497 kts | 166° |
| 2026-04-11 10:54 | 39.02066 | 29.83204 | 31087 ft | 496 kts | 166° |
| 2026-04-11 10:55 | 38.95757 | 29.86859 | 31087 ft | 506 kts | 152° |
| 2026-04-11 10:55 | 38.92971 | 29.89651 | 31086 ft | 513 kts | 140° |
| 2026-04-11 10:55 | 38.90610 | 29.93099 | 31085 ft | 517 kts | 127° |
| 2026-04-11 10:55 | 38.88807 | 29.97023 | 31086 ft | 517 kts | 114° |
| 2026-04-11 10:56 | 38.87609 | 30.01357 | 31085 ft | 515 kts | 101° |
| 2026-04-11 10:56 | 38.86384 | 30.10378 | 31079 ft | 513 kts | 96° |
| 2026-04-11 10:57 | 38.85195 | 30.19417 | 31074 ft | 514 kts | 97° |
| 2026-04-11 10:57 | 38.83976 | 30.28464 | 31072 ft | 515 kts | 97° |
| 2026-04-11 10:58 | 38.82750 | 30.37517 | 31068 ft | 516 kts | 97° |
| 2026-04-11 10:58 | 38.81724 | 30.45054 | 31064 ft | 517 kts | 98° |
| 2026-04-11 10:59 | 38.79597 | 30.53857 | 31058 ft | 519 kts | 116° |
| 2026-04-11 10:59 | 38.75722 | 30.61598 | 31057 ft | 514 kts | 134° |
| 2026-04-11 11:00 | 38.71022 | 30.68502 | 31056 ft | 514 kts | 135° |
| 2026-04-11 11:00 | 38.66315 | 30.75403 | 31057 ft | 515 kts | 135° |
| 2026-04-11 11:01 | 38.61606 | 30.82295 | 31057 ft | 514 kts | 135° |
| 2026-04-11 11:01 | 38.56902 | 30.89176 | 31067 ft | 514 kts | 135° |
| 2026-04-11 11:02 | 38.52199 | 30.96046 | 31073 ft | 513 kts | 135° |
| 2026-04-11 11:02 | 38.47496 | 31.02876 | 31044 ft | 512 kts | 136° |
| 2026-04-11 11:02 | 38.45136 | 31.06280 | 30784 ft | 512 kts | 136° |
| 2026-04-11 11:03 | 38.42799 | 31.09633 | 30537 ft | 512 kts | 136° |
| 2026-04-11 11:03 | 38.40399 | 31.13063 | 30283 ft | 512 kts | 136° |
| 2026-04-11 11:03 | 38.38027 | 31.16455 | 30019 ft | 513 kts | 136° |
| 2026-04-11 11:03 | 38.35686 | 31.19799 | 29725 ft | 512 kts | 136° |
| 2026-04-11 11:04 | 38.33320 | 31.23175 | 29439 ft | 511 kts | 136° |
| 2026-04-11 11:04 | 38.30960 | 31.26544 | 29147 ft | 508 kts | 136° |
| 2026-04-11 11:04 | 38.28618 | 31.29886 | 28579 ft | 505 kts | 136° |
| 2026-04-11 11:04 | 38.26285 | 31.33217 | 27926 ft | 503 kts | 136° |
| 2026-04-11 11:05 | 38.23959 | 31.36534 | 27297 ft | 500 kts | 136° |
| 2026-04-11 11:05 | 38.21642 | 31.39826 | 26675 ft | 498 kts | 136° |
| 2026-04-11 11:05 | 38.19339 | 31.43088 | 26043 ft | 496 kts | 137° |
| 2026-04-11 11:05 | 38.17037 | 31.46340 | 25420 ft | 493 kts | 137° |
| 2026-04-11 11:06 | 38.14788 | 31.49638 | 24805 ft | 494 kts | 130° |
| 2026-04-11 11:06 | 38.12932 | 31.53309 | 24257 ft | 494 kts | 120° |
| 2026-04-11 11:06 | 38.11578 | 31.57291 | 23778 ft | 491 kts | 109° |
| 2026-04-11 11:06 | 38.10749 | 31.61471 | 23218 ft | 485 kts | 98° |
| 2026-04-11 11:07 | 38.10286 | 31.65682 | 22762 ft | 479 kts | 96° |
| 2026-04-11 11:07 | 38.09826 | 31.69846 | 22293 ft | 474 kts | 97° |
| 2026-04-11 11:07 | 38.09355 | 31.73966 | 21810 ft | 469 kts | 97° |
| 2026-04-11 11:07 | 38.08881 | 31.78040 | 21338 ft | 466 kts | 97° |
| 2026-04-11 11:08 | 38.08407 | 31.82091 | 20861 ft | 462 kts | 97° |
| 2026-04-11 11:08 | 38.07939 | 31.86116 | 20381 ft | 460 kts | 97° |
| 2026-04-11 11:08 | 38.07477 | 31.90122 | 19879 ft | 456 kts | 97° |
| 2026-04-11 11:08 | 38.07021 | 31.94093 | 19373 ft | 454 kts | 97° |
| 2026-04-11 11:09 | 38.06568 | 31.98053 | 18816 ft | 453 kts | 97° |
| 2026-04-11 11:09 | 38.06115 | 32.02001 | 18307 ft | 451 kts | 97° |
| 2026-04-11 11:09 | 38.05663 | 32.05918 | 17685 ft | 448 kts | 98° |
| 2026-04-11 11:09 | 38.04990 | 32.09733 | 17282 ft | 440 kts | 109° |
| 2026-04-11 11:10 | 38.03754 | 32.13244 | 16722 ft | 433 kts | 123° |
| 2026-04-11 11:10 | 38.02008 | 32.16288 | 16207 ft | 423 kts | 136° |
| 2026-04-11 11:10 | 37.99870 | 32.18765 | 15699 ft | 411 kts | 148° |
| 2026-04-11 11:10 | 37.97530 | 32.20784 | 15159 ft | 405 kts | 152° |
| 2026-04-11 11:11 | 37.95204 | 32.22758 | 14629 ft | 401 kts | 151° |
| 2026-04-11 11:11 | 37.92929 | 32.24691 | 14114 ft | 396 kts | 151° |
| 2026-04-11 11:11 | 37.90621 | 32.26448 | 13927 ft | 378 kts | 156° |
| 2026-04-11 11:11 | 37.88310 | 32.27934 | 13545 ft | 368 kts | 159° |
| 2026-04-11 11:12 | 37.86047 | 32.29365 | 13126 ft | 361 kts | 159° |
| 2026-04-11 11:12 | 37.83806 | 32.30760 | 12667 ft | 357 kts | 159° |
| 2026-04-11 11:12 | 37.81589 | 32.32119 | 12204 ft | 351 kts | 159° |
| 2026-04-11 11:12 | 37.79395 | 32.33444 | 11730 ft | 347 kts | 159° |
| 2026-04-11 11:13 | 37.77220 | 32.34729 | 11307 ft | 343 kts | 159° |
| 2026-04-11 11:13 | 37.75070 | 32.35979 | 10900 ft | 338 kts | 159° |
| 2026-04-11 11:13 | 37.72938 | 32.37195 | 10341 ft | 337 kts | 159° |
| 2026-04-11 11:13 | 37.70755 | 32.38402 | 9222 ft | 347 kts | 159° |
| 2026-04-11 11:14 | 37.68451 | 32.39639 | 8704 ft | 369 kts | 159° |
| 2026-04-11 11:14 | 37.66017 | 32.40724 | 8522 ft | 373 kts | 169° |
| 2026-04-11 11:14 | 37.63468 | 32.41296 | 8508 ft | 372 kts | 171° |
| 2026-04-11 11:14 | 37.61030 | 32.42358 | 8513 ft | 375 kts | 149° |
| 2026-04-11 11:15 | 37.59178 | 32.44575 | 8505 ft | 358 kts | 123° |
| 2026-04-11 11:15 | 37.58380 | 32.47327 | 8503 ft | 317 kts | 94° |
| 2026-04-11 11:15 | 37.58715 | 32.49841 | 8502 ft | 280 kts | 61° |
| 2026-04-11 11:15 | 37.59890 | 32.51573 | 8505 ft | 246 kts | 34° |
| 2026-04-11 11:16 | 37.61340 | 32.52513 | 8542 ft | 231 kts | 12° |
| 2026-04-11 11:16 | 37.62891 | 32.52501 | 8524 ft | 223 kts | 342° |
| 2026-04-11 11:16 | 37.64394 | 32.52019 | 8521 ft | 223 kts | 343° |
| 2026-04-11 11:16 | 37.65908 | 32.51561 | 8522 ft | 224 kts | 343° |
| 2026-04-11 11:17 | 37.67420 | 32.51104 | 8518 ft | 223 kts | 344° |
| 2026-04-11 11:17 | 37.68918 | 32.50653 | 8527 ft | 215 kts | 343° |
| 2026-04-11 11:17 | 37.70343 | 32.50225 | 8539 ft | 208 kts | 343° |
| 2026-04-11 11:17 | 37.71747 | 32.49802 | 8370 ft | 206 kts | 343° |
| 2026-04-11 11:18 | 37.73138 | 32.49383 | 8145 ft | 205 kts | 343° |
| 2026-04-11 11:18 | 37.74527 | 32.48965 | 7914 ft | 205 kts | 343° |
| 2026-04-11 11:18 | 37.75906 | 32.48550 | 7674 ft | 203 kts | 344° |
| 2026-04-11 11:18 | 37.77318 | 32.48409 | 7438 ft | 206 kts | 2° |
| 2026-04-11 11:19 | 37.78730 | 32.48734 | 7176 ft | 206 kts | 11° |
| 2026-04-11 11:19 | 37.80107 | 32.49215 | 6906 ft | 205 kts | 14° |
| 2026-04-11 11:19 | 37.81494 | 32.49734 | 6638 ft | 213 kts | 14° |
| 2026-04-11 11:19 | 37.82880 | 32.50258 | 6368 ft | 201 kts | 14° |
| 2026-04-11 11:20 | 37.84119 | 32.50729 | 6098 ft | 173 kts | 14° |
| 2026-04-11 11:20 | 37.85235 | 32.51150 | 5859 ft | 163 kts | 14° |
| 2026-04-11 11:20 | 37.86294 | 32.51550 | 5653 ft | 159 kts | 13° |
| 2026-04-11 11:20 | 37.87361 | 32.51953 | 5437 ft | 158 kts | 14° |
| 2026-04-11 11:21 | 37.88407 | 32.52347 | 5219 ft | 157 kts | 14° |
| 2026-04-11 11:21 | 37.89435 | 32.52738 | 5020 ft | 156 kts | 12° |
| 2026-04-11 11:21 | 37.90473 | 32.53126 | 4751 ft | 155 kts | 13° |
| 2026-04-11 11:21 | 37.91498 | 32.53516 | 4518 ft | 153 kts | 13° |
| 2026-04-11 11:22 | 37.92516 | 32.53908 | 4260 ft | 152 kts | 14° |
| 2026-04-11 11:22 | 37.93517 | 32.54279 | 4027 ft | 149 kts | 15° |
| 2026-04-11 11:22 | 37.94508 | 32.54656 | 3824 ft | 149 kts | 15° |
| 2026-04-11 11:22 | 37.95494 | 32.55031 | 3624 ft | 148 kts | 14° |
| 2026-04-11 11:23 | 37.96478 | 32.55410 | 3429 ft | 148 kts | 14° |
| 2026-04-11 11:23 | 37.97416 | 32.55759 | 3391 ft | 122 kts | 16° |
| 2026-04-11 11:23 | 37.98065 | 32.56006 | 3392 ft | 73 kts | 17° |
| 2026-04-11 11:23 | 37.98457 | 32.56156 | 3389 ft | 41 kts | 17° |
| 2026-04-11 11:24 | 37.98622 | 32.56217 | 3389 ft | 13 kts | 16° |
| 2026-04-11 11:24 | 37.98694 | 32.56260 | 3389 ft | 12 kts | 51° |
| 2026-04-11 11:24 | 37.98688 | 32.56366 | 3390 ft | 13 kts | 108° |
| 2026-04-11 11:24 | 37.98658 | 32.56483 | 3391 ft | 14 kts | 107° |
| 2026-04-11 11:25 | 37.98628 | 32.56611 | 3392 ft | 16 kts | 106° |
| 2026-04-11 11:25 | 37.98594 | 32.56757 | 3392 ft | 19 kts | 107° |
| 2026-04-11 11:25 | 37.98554 | 32.56923 | 3391 ft | 21 kts | 107° |
| 2026-04-11 11:25 | 37.98510 | 32.57107 | 3391 ft | 23 kts | 108° |
| 2026-04-11 11:26 | 37.98465 | 32.57296 | 3391 ft | 20 kts | 107° |
| 2026-04-11 11:26 | 37.98440 | 32.57399 | 3391 ft | 7 kts | 105° |
| 2026-04-11 11:26 | 37.98457 | 32.57460 | 3391 ft | 9 kts | 33° |
| 2026-04-11 11:26 | 37.98524 | 32.57486 | 3392 ft | 11 kts | 15° |
| 2026-04-11 11:27 | 37.98602 | 32.57513 | 3391 ft | 9 kts | 15° |
| 2026-04-11 11:27 | 37.98621 | 32.57527 | 3391 ft | 2 kts | 61° |
| 2026-04-11 11:27 | 37.98619 | 32.57543 | 3391 ft | 3 kts | 102° |
| 2026-04-11 11:27 | 37.98615 | 32.57563 | 3391 ft | 2 kts | 104° |
| 2026-04-11 11:28 | 37.98613 | 32.57574 | 3391 ft | 0 kts | 104° |